»·PEaware :: N4657 KSBD-KEMT

N4657 :: KSBD-KEMT

FLIGHT INFORMATION

Flight Status: Arrived
Operator: Privately registered:
United States
More flights under this callsign
Pilot: Daniel P. (20187)
Aircraft: PILATUS PC-12 EAGLE
(PC12)
More flights by this aircraft type
Origin: KSBD San Bernardino Intl
United States
Destination: KEMT El Monte
United States
More flights between these airports :: More routes between these airports
Route:
File this flight plan on PilotEdge
Remarks: cat7
Altitude:
(Current/Filed)
4,500ft
Speed:
(Current/Filed)
150kts
Departed: 01-Sep-18 11:26 AM
Arrived: 01-Sep-18 11:53 AM
Distance/Time
Traveled:
40nm/0:27
Distance/Time
To Go:
Arrived

Flight Plot

Page will automatically refresh every two minutes.


Map Options




Map Legend


Flown Route
Filed Route
Departure Airport
Arrival Airport
Navaid (VOR, NDB)
Fix

Horizontal Profiles

Position Reports

Time Latitude Longitude Heading Altitude Ground
Speed
01-Sep-18 10:09 34.102707 -117.245272 1 1098ft 0kts
01-Sep-18 10:10 34.102707 -117.245272 1 1098ft 0kts
01-Sep-18 10:11 34.102707 -117.245272 1 1098ft 0kts
01-Sep-18 10:12 34.102707 -117.245272 1 1098ft 0kts
01-Sep-18 10:13 34.102707 -117.245272 1 1098ft 0kts
01-Sep-18 10:14 34.102707 -117.245272 1 1098ft 0kts
01-Sep-18 10:15 34.102707 -117.245272 1 1098ft 0kts
01-Sep-18 10:16 34.102707 -117.245272 1 1098ft 0kts
01-Sep-18 10:17 34.102707 -117.245272 1 1098ft 0kts
01-Sep-18 10:18 34.102707 -117.245272 1 1098ft 0kts
01-Sep-18 10:19 34.102707 -117.245272 1 1098ft 0kts
01-Sep-18 10:20 34.102707 -117.245272 1 1098ft 0kts
01-Sep-18 10:21 34.102707 -117.245272 1 1098ft 0kts
01-Sep-18 10:22 34.102707 -117.245272 1 1098ft 0kts
01-Sep-18 10:23 34.102707 -117.245272 1 1098ft 0kts
01-Sep-18 10:24 34.102707 -117.245272 1 1098ft 0kts
01-Sep-18 10:25 34.102707 -117.245272 1 1098ft 0kts
01-Sep-18 10:26 34.102707 -117.245272 1 1098ft 0kts
01-Sep-18 10:27 34.102707 -117.245272 1 1098ft 0kts
01-Sep-18 10:28 34.102707 -117.245272 1 1098ft 0kts
01-Sep-18 10:29 34.102707 -117.245272 1 1098ft 0kts
01-Sep-18 10:30 34.102707 -117.245272 1 1098ft 0kts
01-Sep-18 10:31 34.102707 -117.245272 1 1098ft 0kts
01-Sep-18 10:32 34.102707 -117.245272 1 1098ft 0kts
01-Sep-18 10:33 34.102707 -117.245272 1 1098ft 0kts
01-Sep-18 10:34 34.102707 -117.245272 1 1098ft 0kts
01-Sep-18 10:35 34.102707 -117.245272 1 1098ft 0kts
01-Sep-18 10:36 34.102707 -117.245272 1 1098ft 0kts
01-Sep-18 10:37 34.102707 -117.245272 1 1098ft 0kts
01-Sep-18 10:38 34.102707 -117.245272 1 1098ft 0kts
01-Sep-18 10:39 34.102707 -117.245272 1 1098ft 0kts
01-Sep-18 10:40 34.102707 -117.245272 1 1098ft 0kts
01-Sep-18 10:41 34.102707 -117.245272 1 1098ft 0kts
01-Sep-18 10:42 34.102707 -117.245272 1 1098ft 0kts
01-Sep-18 10:43 34.102707 -117.245272 1 1098ft 0kts
01-Sep-18 10:44 34.102707 -117.245272 1 1098ft 0kts
01-Sep-18 10:45 34.102707 -117.245272 1 1098ft 0kts
01-Sep-18 10:46 34.102707 -117.245272 1 1098ft 0kts
01-Sep-18 10:47 34.102707 -117.245272 1 1098ft 0kts
01-Sep-18 10:48 34.102707 -117.245272 1 1098ft 0kts
01-Sep-18 10:49 34.102707 -117.245272 1 1098ft 0kts
01-Sep-18 10:50 34.102708 -117.245272 1 1098ft 0kts
01-Sep-18 10:51 34.102708 -117.245272 1 1098ft 0kts
01-Sep-18 10:52 34.102708 -117.245272 1 1098ft 0kts
01-Sep-18 10:53 34.102708 -117.245272 1 1098ft 0kts
01-Sep-18 10:54 34.102708 -117.245272 1 1098ft 0kts
01-Sep-18 10:55 34.102708 -117.245272 1 1098ft 0kts
01-Sep-18 10:56 34.102707 -117.245272 1 1098ft 0kts
01-Sep-18 10:57 34.102707 -117.245272 1 1098ft 0kts
01-Sep-18 10:58 34.102708 -117.245272 1 1098ft 0kts
01-Sep-18 10:59 34.102708 -117.245272 1 1098ft 0kts
01-Sep-18 11:00 34.102708 -117.245272 1 1098ft 0kts
01-Sep-18 11:01 34.102708 -117.245272 1 1098ft 0kts
01-Sep-18 11:02 34.102708 -117.245272 1 1098ft 0kts
01-Sep-18 11:03 34.102708 -117.245272 1 1098ft 0kts
01-Sep-18 11:04 34.102708 -117.245272 1 1098ft 0kts
01-Sep-18 11:05 34.102708 -117.245272 1 1098ft 0kts
01-Sep-18 11:06 34.102708 -117.245272 1 1098ft 0kts
01-Sep-18 11:07 34.102708 -117.245272 1 1098ft 0kts
01-Sep-18 11:08 34.102708 -117.245272 1 1098ft 0kts
01-Sep-18 11:09 34.102708 -117.245272 1 1098ft 0kts
01-Sep-18 11:10 34.102708 -117.245272 1 1098ft 0kts
01-Sep-18 11:11 34.102708 -117.245272 1 1098ft 0kts
01-Sep-18 11:12 34.102708 -117.245272 1 1098ft 0kts
01-Sep-18 11:13 34.102708 -117.245272 1 1098ft 0kts
01-Sep-18 11:14 34.102849 -117.245269 2 1098ft 5kts
01-Sep-18 11:15 34.103091 -117.241441 91 1107ft 15kts
01-Sep-18 11:16 34.102003 -117.236671 106 1117ft 15kts
01-Sep-18 11:17 34.100552 -117.230723 106 1131ft 19kts
01-Sep-18 11:18 34.099890 -117.225630 71 1143ft 14kts
01-Sep-18 11:19 34.101375 -117.220553 75 1156ft 14kts
01-Sep-18 11:20 34.100833 -117.219768 157 1159ft 0kts
01-Sep-18 11:21 34.100833 -117.219768 157 1159ft 0kts
01-Sep-18 11:22 34.100833 -117.219768 157 1159ft 0kts
01-Sep-18 11:23 34.100833 -117.219768 157 1159ft 0kts
01-Sep-18 11:24 34.100833 -117.219768 157 1159ft 0kts
01-Sep-18 11:25 34.100833 -117.219768 157 1159ft 0kts
01-Sep-18 11:26 34.099833 -117.219836 230 1159ft 15kts
01-Sep-18 11:27 34.090561 -117.246815 249 1713ft 101kts
01-Sep-18 11:28 34.103020 -117.268745 17 2316ft 102kts
01-Sep-18 11:29 34.126262 -117.253717 333 3807ft 116kts
01-Sep-18 11:30 34.118094 -117.288039 228 4499ft 151kts
01-Sep-18 11:31 34.092552 -117.323517 258 4485ft 134kts
01-Sep-18 11:32 34.096282 -117.365563 273 4481ft 118kts
01-Sep-18 11:33 34.097180 -117.406780 270 4485ft 126kts
01-Sep-18 11:34 34.096931 -117.449415 269 4485ft 127kts
01-Sep-18 11:35 34.096384 -117.492202 268 4485ft 127kts
01-Sep-18 11:36 34.095666 -117.534641 268 4486ft 127kts
01-Sep-18 11:37 34.094943 -117.576220 268 4485ft 122kts
01-Sep-18 11:38 34.094173 -117.616568 269 4488ft 120kts
01-Sep-18 11:39 34.093480 -117.656686 268 4487ft 122kts
01-Sep-18 11:40 34.092718 -117.697725 268 4492ft 123kts
01-Sep-18 11:41 34.091930 -117.739275 268 4496ft 123kts
01-Sep-18 11:42 34.091175 -117.778868 268 4480ft 106kts
01-Sep-18 11:44 34.090507 -117.812729 268 4470ft 98kts
01-Sep-18 11:45 34.089850 -117.845853 268 4474ft 100kts
01-Sep-18 11:46 34.089174 -117.879929 267 4397ft 107kts
01-Sep-18 11:47 34.093254 -117.917349 321 3685ft 125kts
01-Sep-18 11:48 34.111900 -117.893438 101 2990ft 132kts
01-Sep-18 11:49 34.087339 -117.894666 244 2312ft 120kts
01-Sep-18 11:50 34.075220 -117.929941 256 1639ft 107kts
01-Sep-18 11:51 34.080256 -117.959907 318 1193ft 80kts
01-Sep-18 11:52 34.099290 -117.979955 295 1466ft 91kts
01-Sep-18 11:53 34.111494 -118.006553 286 1389ft 88kts
01-Sep-18 11:54 34.100296 -118.026530 205 594ft 85kts
01-Sep-18 11:55 34.085730 -118.034786 190 286ft 4kts
01-Sep-18 11:56 34.085487 -118.034799 142 286ft 0kts
01-Sep-18 11:57 34.085487 -118.034799 142 286ft 0kts
01-Sep-18 11:58 34.085487 -118.034799 142 286ft 0kts
01-Sep-18 11:59 34.085487 -118.034799 142 286ft 0kts
01-Sep-18 12:00 34.085487 -118.034799 142 286ft 0kts
01-Sep-18 12:01 34.085487 -118.034799 142 286ft 0kts
01-Sep-18 12:02 34.085487 -118.034799 142 286ft 0kts
01-Sep-18 12:03 34.085487 -118.034799 142 286ft 0kts
01-Sep-18 12:04 34.085079 -118.034410 151 287ft 8kts
01-Sep-18 12:04 34.085172 -118.033718 292 288ft 0kts
01-Sep-18 12:06 34.085171 -118.033717 292 288ft 0kts
01-Sep-18 12:07 34.085171 -118.033717 292 288ft 0kts
01-Sep-18 12:08 34.085171 -118.033717 292 288ft 0kts
01-Sep-18 12:08 34.085171 -118.033717 292 288ft 0kts

Navigation Log

Ident Type
Flight plan parsing failed, navigation log unavailable